Time;durP1;ratioP1;P1;durP2;ratioP2;P2;SDS_P1;SDS_P2;PMS_P1;PMS_P2;Temp;Humidity;BMP_temperature;BMP_pressure;BME280_temperature;BME280_humidity;BME280_pressure;Samples;Min_cycle;Max_cycle;Signal;HPM_P1;HPM_P2
2022/01/19 12:36:47;;;;;;;51.70;3.93;;;;;;;;;;6195733;22;1385937;-78
2022/01/19 12:39:28;;;;;;;51.27;4.00;;;;;;;;;;6253359;23;20374;-78
2022/01/19 12:42:16;;;;;;;60.97;3.50;;;10.70;26.60;;;;;;6226051;23;20374;-78
2022/01/19 12:44:56;;;;;;;31.70;2.93;;;10.40;27.20;;;;;;6252732;23;20369;-78
2022/01/19 12:47:28;;;;;;;81.27;4.10;;;;;;;;;;6252178;23;20382;-78
2022/01/19 12:50:09;;;;;;;50.73;2.70;;;;;;;;;;6225512;23;20382;-78
2022/01/19 12:52:55;;;;;;;65.40;3.10;;;;;;;;;;6252635;23;21007;-78
2022/01/19 12:55:24;;;;;;;66.67;4.10;;;10.20;27.80;;;;;;6253287;23;20417;-78
2022/01/19 12:57:52;;;;;;;55.07;3.40;;;11.00;26.70;;;;;;6252681;23;20377;-78
2022/01/19 13:00:20;;;;;;;58.20;3.70;;;;;;;;;;6253093;23;20378;-78
2022/01/19 13:02:46;;;;;;;80.80;4.00;;;11.10;26.20;;;;;;6252955;23;20455;-78
2022/01/19 13:05:18;;;;;;;43.40;2.57;;;;;;;;;;6253661;23;20370;-78
2022/01/19 13:07:46;;;;;;;57.23;3.10;;;;;;;;;;6252473;23;20426;-78
2022/01/19 13:10:27;;;;;;;37.90;3.33;;;;;;;;;;6253314;23;20863;-78
2022/01/19 13:13:12;;;;;;;85.90;3.70;;;;;;;;;;6253653;23;20882;-78
2022/01/19 13:15:51;;;;;;;55.50;3.63;;;10.70;27.30;;;;;;6253445;23;20721;-78
2022/01/19 13:18:28;;;;;;;99.00;4.67;;;;;;;;;;6252733;23;20659;-79
2022/01/19 13:20:56;;;;;;;50.80;3.00;;;9.60;30.40;;;;;;6226388;23;20366;-78
2022/01/19 13:23:23;;;;;;;68.77;3.60;;;;;;;;;;6253593;23;20370;-79
2022/01/19 13:25:56;;;;;;;50.20;3.07;;;;;;;;;;6225961;23;20958;-78
2022/01/19 13:28:27;;;;;;;74.13;3.63;;;;;;;;;;6253303;23;20362;-78
2022/01/19 13:30:57;;;;;;;56.80;3.10;;;;;;;;;;6254265;23;20362;-79
2022/01/19 13:33:23;;;;;;;59.90;3.33;;;;;;;;;;6253243;23;20369;-78
2022/01/19 13:35:57;;;;;;;44.88;3.03;;;;;;;;;;6267043;22;20404;-78
2022/01/19 13:38:26;;;;;;;80.18;3.47;;;8.00;35.40;;;;;;6275627;22;20591;-78
2022/01/19 13:40:52;;;;;;;57.90;3.85;;;;;;;;;;6275993;22;20775;-78
2022/01/19 13:43:20;;;;;;;85.65;3.67;;;8.00;35.90;;;;;;6275470;22;20154;-78
2022/01/19 13:50:59;;;;;;;54.97;3.08;;;;;;;;;;6286445;22;20360;-78
2022/01/19 13:53:33;;;;;;;83.07;3.40;;;7.20;38.50;;;;;;6275616;22;20644;-78
2022/01/19 13:56:00;;;;;;;84.65;3.35;;;;;;;;;;6275355;22;20244;-78
2022/01/19 13:58:49;;;;;;;67.15;3.05;;;6.60;40.10;;;;;;6275528;22;20481;-78
2022/01/19 14:01:20;;;;;;;71.15;2.83;;;;;;;;;;6275634;22;20164;-78
2022/01/19 14:03:55;;;;;;;54.75;2.63;;;;;;;;;;6275560;22;20131;-77
2022/01/19 14:06:31;;;;;;;69.90;2.63;;;;;;;;;;6274909;22;20524;-78
2022/01/19 14:09:14;;;;;;;51.45;3.05;;;;;;;;;;6275425;22;20479;-78
2022/01/19 14:11:46;;;;;;;26.23;2.75;;;6.60;40.10;;;;;;6275381;22;20146;-78
2022/01/19 14:14:20;;;;;;;100.22;4.30;;;;;;;;;;6275286;22;20160;-78
2022/01/19 14:16:48;;;;;;;46.45;3.10;;;;;;;;;;6275215;22;20252;-78
2022/01/19 14:19:19;;;;;;;110.55;4.28;;;6.80;39.10;;;;;;6275239;22;20206;-78
2022/01/19 14:22:04;;;;;;;55.17;3.40;;;;;;;;;;6275557;22;20131;-78
2022/01/19 14:24:50;;;;;;;65.90;3.70;;;;;;;;;;6275099;22;20629;-78
2022/01/19 14:27:24;;;;;;;83.35;4.00;;;6.90;38.70;;;;;;6198463;22;20305;-78
2022/01/19 14:30:08;;;;;;;62.45;3.45;;;;;;;;;;6275442;22;20135;-78
2022/01/19 14:32:40;;;;;;;128.93;4.95;;;;;;;;;;6275569;22;20143;-78
2022/01/19 14:35:30;;;;;;;99.68;3.15;;;6.60;38.80;;;;;;6248233;22;20166;-78
2022/01/19 14:38:11;;;;;;;66.25;3.22;;;6.40;40.80;;;;;;6274925;22;20165;-78
2022/01/19 14:40:51;;;;;;;43.58;2.22;;;;;;;;;;6275299;22;20590;-78
2022/01/19 14:43:19;;;;;;;99.22;4.03;;;;;;;;;;6274762;22;20151;-78
2022/01/19 14:45:55;;;;;;;35.30;2.72;;;;;;;;;;6274913;22;20186;-78
2022/01/19 14:48:24;;;;;;;72.05;3.78;;;8.20;34.70;;;;;;6274381;22;20139;-78
2022/01/19 14:50:51;;;;;;;50.40;3.58;;;;;;;;;;6275024;22;20227;-78
2022/01/19 14:53:16;;;;;;;77.25;2.90;;;8.20;33.60;;;;;;6274812;22;20189;-78
2022/01/19 14:55:43;;;;;;;62.40;2.80;;;;;;;;;;6274694;22;20167;-78
2022/01/19 14:58:10;;;;;;;54.53;2.65;;;7.10;36.40;;;;;;6274641;22;20151;-78
2022/01/19 15:00:37;;;;;;;52.63;3.03;;;;;;;;;;6274994;22;20532;-78
2022/01/19 15:03:03;;;;;;;130.77;4.85;;;;;;;;;;6275113;22;20151;-78
2022/01/19 15:05:31;;;;;;;114.35;4.05;;;;;;;;;;6274011;22;20762;-78
2022/01/19 15:07:57;;;;;;;69.57;2.78;;;;;;;;;;6249791;22;20142;-80
2022/01/19 15:10:24;;;;;;;59.35;3.22;;;;;;;;;;6278698;22;20150;-80
2022/01/19 15:12:52;;;;;;;66.65;3.20;;;;;;;;;;6278160;22;20178;-81
2022/01/19 15:15:24;;;;;;;67.60;2.97;;;7.50;34.40;;;;;;6278127;22;20150;-77
2022/01/19 15:17:56;;;;;;;40.08;2.60;;;7.10;35.50;;;;;;6280943;22;20187;-80
2022/01/19 15:20:27;;;;;;;61.90;2.58;;;7.30;34.60;;;;;;6282482;22;20127;-81
2022/01/19 15:22:59;;;;;;;44.13;2.58;;;;;;;;;;6289664;22;20162;-81
2022/01/19 15:25:26;;;;;;;106.75;3.55;;;;;;;;;;6281631;22;20165;-81
2022/01/19 15:27:52;;;;;;;58.15;2.50;;;;;;;;;;6281324;22;20154;-82
2022/01/19 15:30:18;;;;;;;63.85;2.85;;;;;;;;;;6279870;22;20158;-82
2022/01/19 15:32:44;;;;;;;54.15;2.65;;;;;;;;;;6281488;22;20198;-79
2022/01/19 15:35:11;;;;;;;76.10;3.03;;;;;;;;;;6276935;22;20182;-79
2022/01/19 15:37:38;;;;;;;76.30;2.95;;;7.00;34.60;;;;;;6277075;22;20406;-79
2022/01/19 15:40:11;;;;;;;65.95;2.65;;;;;;;;;;6278040;22;20147;-79
2022/01/19 15:42:37;;;;;;;47.28;2.50;;;7.90;32.40;;;;;;6278735;22;20208;-79
2022/01/19 15:45:03;;;;;;;81.13;3.27;;;;;;;;;;6276602;22;20150;-79
2022/01/19 15:47:29;;;;;;;72.15;2.75;;;8.10;31.50;;;;;;6276013;22;20181;-79
2022/01/19 15:49:55;;;;;;;55.27;3.17;;;;;;;;;;6277479;22;20178;-80
2022/01/19 15:52:25;;;;;;;103.65;3.60;;;;;;;;;;6279230;22;20155;-79
2022/01/19 15:54:51;;;;;;;43.22;3.75;;;;;;;;;;6276476;22;20236;-78
2022/01/19 15:57:17;;;;;;;105.80;3.63;;;;;;;;;;6270802;22;20186;-78
2022/01/19 15:59:43;;;;;;;76.20;3.00;;;;;;;;;;6276234;22;20205;-78
2022/01/19 18:57:55;;;;;;;59.55;3.33;;;7.70;33.50;;;;;;5108855;27;20559;-77
2022/01/19 19:00:22;;;;;;;50.87;3.03;;;7.60;34.00;;;;;;5109194;28;20307;-77
2022/01/19 19:02:49;;;;;;;41.70;2.25;;;;;;;;;;5109433;28;20205;-77
2022/01/19 19:05:19;;;;;;;64.95;2.95;;;;;;;;;;5115612;28;20197;-77
2022/01/19 19:07:46;;;;;;;38.42;2.45;;;6.80;36.40;;;;;;5099591;28;20219;-77
2022/01/19 19:10:24;;;;;;;75.00;3.22;;;7.40;35.40;;;;;;5100887;28;20270;-76
2022/01/19 19:12:50;;;;;;;32.63;3.10;;;;;;;;;;5091959;28;20520;-77
2022/01/19 19:15:17;;;;;;;84.85;3.38;;;;;;;;;;5088822;28;20179;-77
2022/01/19 19:17:44;;;;;;;97.72;3.78;;;7.50;34.60;;;;;;5092830;28;20193;-77
2022/01/19 19:20:10;;;;;;;74.07;3.00;;;;;;;;;;5092367;28;20527;-77
2022/01/19 19:22:39;;;;;;;72.15;3.30;;;7.30;35.30;;;;;;5097621;28;20633;-78
2022/01/19 19:25:06;;;;;;;51.13;2.75;;;;;;;;;;5099795;28;20203;-78
2022/01/19 19:27:31;;;;;;;104.30;4.13;;;7.80;33.70;;;;;;5091073;28;20263;-77
2022/01/19 19:29:57;;;;;;;36.33;2.50;;;;;;;;;;5092509;28;20576;-77
2022/01/19 19:32:24;;;;;;;80.68;3.72;;;;;;;;;;5092318;28;20546;-77
2022/01/19 19:34:49;;;;;;;49.28;2.70;;;7.00;35.20;;;;;;5092262;28;20174;-77
2022/01/19 19:37:16;;;;;;;100.60;3.63;;;;;;;;;;5091789;28;20221;-77
2022/01/19 19:39:42;;;;;;;47.38;2.25;;;7.50;34.40;;;;;;5093768;28;20172;-75
2022/01/19 19:42:08;;;;;;;64.72;3.28;;;7.50;33.50;;;;;;5097914;28;20177;-75
2022/01/19 19:44:34;;;;;;;49.07;2.67;;;;;;;;;;5092937;28;20561;-81
2022/01/19 19:47:02;;;;;;;53.65;3.42;;;7.80;33.00;;;;;;5096886;28;20525;-74
2022/01/19 19:49:28;;;;;;;46.33;3.15;;;;;;;;;;5087210;28;20183;-74
2022/01/19 19:51:54;;;;;;;90.43;3.50;;;;;;;;;;5090853;28;20772;-76
2022/01/19 19:54:20;;;;;;;114.20;3.58;;;;;;;;;;5098414;28;20258;-76
2022/01/19 19:56:46;;;;;;;78.07;3.22;;;6.40;36.90;;;;;;5097386;28;20282;-76
2022/01/19 19:59:12;;;;;;;74.35;2.95;;;;;;;;;;5077097;28;20249;-78
2022/01/19 20:01:39;;;;;;;194.40;6.30;;;;;;;;;;5079433;28;20201;-77
2022/01/19 20:04:06;;;;;;;59.72;2.75;;;;;;;;;;5084375;28;20202;-77
2022/01/19 20:06:31;;;;;;;95.13;3.38;;;7.10;35.40;;;;;;5073508;28;20557;-77
2022/01/19 20:08:57;;;;;;;68.97;3.00;;;6.60;35.90;;;;;;5077887;28;20175;-78
2022/01/19 20:11:24;;;;;;;108.87;3.60;;;;;;;;;;5078424;28;20837;-78
2022/01/19 20:13:50;;;;;;;64.82;3.50;;;;;;;;;;5085524;28;20499;-78
2022/01/19 20:16:19;;;;;;;78.20;3.15;;;;;;;;;;5081873;28;20190;-78
2022/01/19 20:18:46;;;;;;;49.00;2.33;;;;;;;;;;5085210;28;20178;-78
2022/01/19 20:21:14;;;;;;;59.47;3.25;;;7.00;34.90;;;;;;5077844;28;20183;-78
2022/01/19 20:23:40;;;;;;;59.10;2.40;;;7.00;35.10;;;;;;5076051;28;20204;-78
2022/01/19 20:26:06;;;;;;;77.40;3.10;;;;;;;;;;5076833;28;20323;-78
2022/01/19 20:28:32;;;;;;;50.15;2.58;;;7.30;34.10;;;;;;5082088;28;20171;-78
2022/01/19 20:30:58;;;;;;;75.27;2.87;;;;;;;;;;5081372;28;20193;-78
2022/01/19 20:33:24;;;;;;;55.78;2.72;;;;;;;;;;5081942;28;20216;-78
2022/01/19 20:35:51;;;;;;;81.80;3.47;;;;;;;;;;5088567;28;20238;-78
2022/01/19 20:38:17;;;;;;;61.97;2.75;;;;;;;;;;5084348;28;20845;-78
2022/01/19 20:40:43;;;;;;;45.95;2.25;;;;;;;;;;5088877;28;20175;-78
2022/01/19 20:43:09;;;;;;;40.37;2.20;;;;;;;;;;5079457;28;20655;-78
2022/01/19 20:45:36;;;;;;;42.20;2.90;;;;;;;;;;5082252;28;20416;-78
2022/01/19 20:48:03;;;;;;;81.50;3.15;;;;;;;;;;5080859;28;20421;-79
2022/01/19 20:50:29;;;;;;;130.27;4.07;;;;;;;;;;5084344;28;20183;-78
2022/01/19 20:52:55;;;;;;;124.32;4.10;;;;;;;;;;5076255;28;20187;-76
2022/01/19 20:55:21;;;;;;;71.22;3.05;;;;;;;;;;5083371;28;20186;-77
2022/01/19 20:57:47;;;;;;;61.97;3.03;;;6.60;36.00;;;;;;5084182;28;20212;-78
2022/01/19 21:00:16;;;;;;;110.83;3.93;;;6.50;37.00;;;;;;5079605;28;20449;-77
2022/01/19 21:02:42;;;;;;;62.38;2.60;;;;;;;;;;5074774;28;20181;-77
2022/01/19 21:05:10;;;;;;;50.90;2.38;;;5.90;38.60;;;;;;5092623;28;20178;-78
2022/01/19 21:07:37;;;;;;;29.38;1.85;;;6.50;37.30;;;;;;5087645;28;20579;-79
2022/01/19 21:10:04;;;;;;;22.42;1.73;;;;;;;;;;5083818;28;20170;-78
2022/01/19 21:12:33;;;;;;;45.70;2.20;;;;;;;;;;5081786;28;20903;-78
2022/01/19 21:14:59;;;;;;;59.20;2.80;;;;;;;;;;5086970;28;20259;-78
2022/01/19 21:17:25;;;;;;;91.80;3.33;;;;;;;;;;5082050;28;20285;-77
2022/01/19 21:19:51;;;;;;;59.73;2.70;;;6.60;37.30;;;;;;5081332;28;20249;-77
2022/01/19 21:22:18;;;;;;;57.23;2.80;;;;;;;;;;5073408;28;20481;-77
2022/01/19 21:24:44;;;;;;;57.55;2.55;;;;;;;;;;5081144;28;20194;-84
2022/01/19 21:27:10;;;;;;;80.32;3.65;;;;;;;;;;5081360;28;20214;-77
2022/01/19 21:29:36;;;;;;;71.95;3.20;;;;;;;;;;5081233;28;20190;-77
2022/01/19 21:32:03;;;;;;;71.15;3.03;;;;;;;;;;5087842;28;20641;-76
2022/01/19 21:34:30;;;;;;;63.47;3.88;;;;;;;;;;5081038;28;20175;-77
2022/01/19 21:36:56;;;;;;;59.00;2.88;;;;;;;;;;5078103;28;20600;-76
2022/01/19 21:39:22;;;;;;;100.72;3.22;;;;;;;;;;5079408;28;20179;-77
2022/01/19 21:41:49;;;;;;;94.27;3.17;;;;;;;;;;5078038;28;20183;-76
2022/01/19 21:44:15;;;;;;;102.55;3.70;;;;;;;;;;5073082;28;20823;-76
2022/01/19 21:46:41;;;;;;;68.90;2.58;;;;;;;;;;5075954;28;20281;-77
2022/01/19 21:49:07;;;;;;;75.25;2.65;;;5.90;39.40;;;;;;5081545;28;20170;-76
2022/01/19 21:51:33;;;;;;;83.20;3.47;;;;;;;;;;5076544;28;20186;-77
2022/01/19 21:53:59;;;;;;;76.65;3.17;;;;;;;;;;5078611;28;20414;-77
2022/01/19 21:56:25;;;;;;;92.20;3.25;;;6.00;39.80;;;;;;5074963;28;20203;-76
2022/01/19 21:58:51;;;;;;;100.03;3.47;;;;;;;;;;5070701;28;20293;-76
2022/01/19 22:01:17;;;;;;;71.20;3.35;;;;;;;;;;5075749;28;20257;-77
2022/01/19 22:03:43;;;;;;;59.15;2.45;;;;;;;;;;5080388;28;20180;-77
2022/01/19 22:06:09;;;;;;;113.40;3.92;;;;;;;;;;5082274;28;20222;-77
2022/01/19 22:08:36;;;;;;;70.05;3.13;;;;;;;;;;5077806;28;20183;-77
2022/01/19 22:11:02;;;;;;;84.05;3.40;;;;;;;;;;5086367;28;20668;-76
2022/01/19 22:13:28;;;;;;;122.90;4.15;;;;;;;;;;5078238;28;20201;-76
2022/01/19 22:15:54;;;;;;;100.72;3.58;;;;;;;;;;5081511;28;20207;-76
2022/01/19 22:18:20;;;;;;;71.60;2.88;;;;;;;;;;5087899;28;20182;-76
2022/01/19 22:20:47;;;;;;;45.10;2.05;;;;;;;;;;5082302;28;20304;-77
2022/01/19 22:23:14;;;;;;;59.67;2.65;;;;;;;;;;5091177;28;20663;-76
